• Join FlightAware (Why Join?)
  • Login
  • US Flag 
02:00AM EST


 

Airport Tracker/Info


-or-


 

Live Flight TrackerFlight Track Log ✈ N79SE ✈ 25-Jun-2013 ✈ KRID - KMGM

Flight Track Log - Related Links

Times and Time Zones

All times are in EDT time to prevent confusion due to time zone crossing. See the N79SE flight status page for this flight to view local times or setup timezone preferences in your user account.

Time Position Orientation Groundspeed Altitude Reporting Facility
EDT Latitude Longitude Course Direction KTS MPH feet Rate Location/Type
03:20PM 39.7108 -84.8736 185° South 201 231 2,800  Level Indianapolis Center
03:21PM 39.6386 -84.8822 185° South 242 278 5,000 2,520 Climbing Indianapolis Center
03:22PM 39.5419 -84.9006 188° South 252 290 9,800 1,920 Climbing Indianapolis Center
03:24PM 39.4469 -84.9228 190° South 344 396 10,000 660 Climbing Indianapolis Center
03:25PM 39.3325 -84.9489 190° South 347 399 11,200 1,560 Climbing Indianapolis Center
03:26PM 39.2383 -84.9725 191° South 345 397 13,300 2,400 Climbing Indianapolis Center
03:27PM 39.1372 -84.9933 189° South 363 418 16,200 2,640 Climbing Indianapolis Center
03:28PM 39.0397 -85.0164 190° South 358 412 18,800 2,580 Climbing Indianapolis Center
03:29PM 38.9417 -85.0378 190° South 356 410 21,600 2,340 Climbing Indianapolis Center
03:30PM 38.8422 -85.0597 190° South 360 414 23,700 2,220 Climbing Indianapolis Center
03:31PM 38.7181 -85.0881 190° South 373 429 26,200 2,160 Climbing Indianapolis Center
03:32PM 38.6164 -85.1092 189° South 379 436 28,200 1,860 Climbing Indianapolis Center
03:33PM 38.5119 -85.1314 189° South 381 438 30,100 1,860 Climbing Indianapolis Center
03:34PM 38.3822 -85.1631 191° South 398 458 32,100 1,380 Climbing Indianapolis Center
03:35PM 38.2697 -85.1869 189° South 408 470 33,000 420 Climbing Indianapolis Center
03:36PM 38.1606 -85.2108 190° South 433 498 33,000  Level Indianapolis Center
03:37PM 38.0331 -85.2375 189° South 455 524 33,000 720 Level Indianapolis Center
03:38PM 37.8831 -85.2694 190° South 452 520 34,500 1,440 Climbing Indianapolis Center
03:39PM 37.7614 -85.2956 190° South 423 487 36,000 720 Climbing Indianapolis Center
03:40PM 37.6428 -85.3203 189° South 431 496 36,000  Level Indianapolis Center
03:41PM 37.5158 -85.3478 190° South 453 521 36,100 900 Climbing Indianapolis Center
03:42PM 37.3944 -85.3742 190° South 449 517 37,900 1,620 Climbing Indianapolis Center
03:43PM 37.2775 -85.3994 190° South 431 496 39,500 1,320 Climbing Indianapolis Center
03:44PM 37.1464 -85.4283 190° South 413 475 40,700 720 Climbing Indianapolis Center
03:45PM 37.0267 -85.4536 190° South 417 480 41,000 360 Climbing Indianapolis Center
03:46PM 36.9083 -85.4783 189° South 428 493 41,500 660 Climbing Indianapolis Center
03:47PM 36.7917 -85.5022 189° South 425 489 42,400 660 Climbing Indianapolis Center
03:48PM 36.6781 -85.5264 190° South 417 480 42,900 240 Climbing Indianapolis Center
03:49PM 36.5639 -85.5503 190° South 417 480 43,000  Climbing Indianapolis Center
03:50PM 36.4489 -85.5747 190° South 419 482 43,000  Level Indianapolis Center
03:51PM 36.3083 -85.6036 189° South 427 491 43,000  Level Indianapolis Center
03:52PM 36.1931 -85.6269 189° South 424 488 43,000  Level Indianapolis Center
03:54PM 36.0750 -85.6517 190° South 429 494 43,000  Level Indianapolis Center
03:55PM 35.9589 -85.6753 189° South 427 491 43,000  Level Indianapolis Center
03:56PM 35.8197 -85.7058 190° South 431 496 43,000  Level Atlanta Center
03:57PM 35.7025 -85.7317 190° South 431 496 43,000  Level Atlanta Center
03:58PM 35.5811 -85.7522 188° South 431 496 43,000  Level Atlanta Center
03:59PM 35.4639 -85.7778 190° South 431 496 43,000  Level Atlanta Center
04:00PM 35.3447 -85.8008 189° South 431 496 43,000  Level Atlanta Center
04:01PM 35.2275 -85.8261 190° South 431 496 43,000  Level Atlanta Center
04:02PM 35.1083 -85.8492 189° South 431 496 43,000  Level Atlanta Center
04:03PM 34.9911 -85.8744 190° South 431 496 43,000  Level Atlanta Center
04:04PM 34.8844 -85.8922 188° South 426 490 43,000  Level Atlanta Center
04:05PM 34.7672 -85.9150 189° South 426 490 43,000  Level Atlanta Center
04:06PM 34.6481 -85.9325 187° South 432 497 43,000 -240 Level Atlanta Center
04:07PM 34.5267 -85.9475 186° South 432 497 42,600 -660 Descending Atlanta Center
04:08PM 34.4011 -85.9597 185° South 445 512 41,700 -960 Descending Atlanta Center
04:09PM 34.2781 -85.9669 183° South 450 518 40,700 -1,080 Descending Atlanta Center
04:10PM 34.1381 -85.9739 182° South 456 525 39,600 -1,260 Descending Atlanta Center
04:11PM 34.0169 -85.9836 184° South 456 525 38,200 -1,620 Descending Atlanta Center
04:12PM 33.8978 -85.9933 184° South 444 511 36,400 -1,920 Descending Atlanta Center
04:13PM 33.7806 -86.0133 188° South 438 504 34,400 -2,100 Descending Atlanta Center
04:14PM 33.6611 -86.0453 193° South 438 504 32,200 -2,400 Descending Atlanta Center
04:15PM 33.5583 -86.0731 193° South 438 504 29,700 -2,820 Descending Atlanta Center
04:16PM 33.4389 -86.1050 193° South 438 504 26,600 -2,340 Descending Atlanta Center
04:17PM 33.3150 -86.1369 192° South 438 504 25,100 -1,200 Descending Atlanta Center
04:18PM 33.1936 -86.1686 192° South 438 504 24,300 -600 Descending Atlanta Center
04:19PM 33.0678 -86.2003 192° South 452 520 23,900 -1,800 Descending Atlanta Center
04:20PM 32.9503 -86.2319 193° South 446 513 20,800 -3,300 Descending Atlanta Center
04:21PM 32.8369 -86.2589 191° South 433 498 17,300 -4,020 Descending Atlanta Center
04:22PM 32.7344 -86.2858 192° South 410 472 12,800 -4,140 Descending Atlanta Center
04:23PM 32.6342 -86.2858 180° South 381 438 9,100 -3,120 Descending Atlanta Center
04:24PM 32.5486 -86.2836 179° South 345 397 6,600 -1,500 Descending Atlanta Center
04:25PM 32.4797 -86.2769 175° South 297 342 5,800 -720 Descending Atlanta Center
04:26PM 32.4178 -86.2436 156° South 226 260 5,100 -600 Descending Atlanta Center
04:27PM 32.3700 -86.2250 162° South 202 232 4,600 -660 Descending Atlanta Center
04:28PM 32.3203 -86.2092 165° South 191 220 3,800 -1,080 Descending Atlanta Center
04:29PM 32.2883 -86.2500 227° Southwest 162 186 2,500 -1,320 Descending Atlanta Center
04:31PM 32.3000 -86.3833 278° West  Level FlightAware Approximate
04:38PM 32.3006 -86.3940 278° West  Level Estimated
04:39PM 32.3006 -86.3940 278° West  Level Estimated